Time;durP1;ratioP1;P1;durP2;ratioP2;P2;SDS_P1;SDS_P2;PMS_P1;PMS_P2;Temp;Humidity;BMP_temperature;BMP_pressure;BME280_temperature;BME280_humidity;BME280_pressure;Samples;Min_cycle;Max_cycle;Signal;HPM_P1;HPM_P2
2024/03/22 00:00:31;;;;;;;14.33;11.10;;;8.10;99.90;;;;;;5050795;28;20189;-63
2024/03/22 00:02:57;;;;;;;12.40;10.60;;;8.10;99.90;;;;;;5051440;28;20183;-63
2024/03/22 00:05:22;;;;;;;14.40;11.30;;;8.10;99.90;;;;;;5050161;28;20204;-62
2024/03/22 00:07:48;;;;;;;14.37;11.37;;;8.10;99.90;;;;;;5051280;28;20190;-64
2024/03/22 00:10:14;;;;;;;17.47;12.37;;;8.00;99.90;;;;;;5049845;28;20255;-63
2024/03/22 00:12:40;;;;;;;16.40;11.77;;;7.90;99.90;;;;;;5051029;28;20512;-63
2024/03/22 00:15:06;;;;;;;13.87;10.10;;;7.90;99.90;;;;;;5050535;28;20234;-62
2024/03/22 00:17:33;;;;;;;16.10;11.53;;;7.90;99.90;;;;;;5043230;28;21101;-63
2024/03/22 00:19:58;;;;;;;14.87;10.87;;;8.00;99.90;;;;;;5033408;28;20429;-63
2024/03/22 00:22:24;;;;;;;13.67;10.70;;;8.00;99.90;;;;;;5049214;28;20453;-63
2024/03/22 00:24:50;;;;;;;13.87;11.27;;;8.00;99.90;;;;;;5050523;28;20293;-62
2024/03/22 00:27:15;;;;;;;15.40;10.90;;;8.10;99.90;;;;;;5050711;28;20218;-63
2024/03/22 00:29:41;;;;;;;13.50;10.23;;;8.10;99.90;;;;;;5050752;28;20539;-63
2024/03/22 00:32:07;;;;;;;13.70;10.60;;;8.10;99.90;;;;;;5049167;28;20184;-64
2024/03/22 00:34:34;;;;;;;14.97;10.57;;;8.10;99.90;;;;;;5050763;28;20276;-65
2024/03/22 00:37:00;;;;;;;14.73;11.43;;;8.10;99.90;;;;;;5031711;28;20457;-62
2024/03/22 00:39:26;;;;;;;16.60;12.70;;;8.10;99.90;;;;;;5048879;28;20414;-62
2024/03/22 00:41:51;;;;;;;18.63;11.80;;;8.10;99.90;;;;;;5046769;28;20422;-62
2024/03/22 00:44:17;;;;;;;16.47;11.63;;;8.10;99.90;;;;;;5049705;28;20193;-63
2024/03/22 00:46:42;;;;;;;13.20;10.43;;;8.10;99.90;;;;;;5050259;28;20576;-62
2024/03/22 00:49:08;;;;;;;15.63;12.13;;;8.10;99.90;;;;;;5049161;28;20293;-60
2024/03/22 00:51:34;;;;;;;15.83;12.37;;;8.10;99.90;;;;;;5050200;28;20565;-61
2024/03/22 00:53:59;;;;;;;16.63;10.73;;;8.20;99.90;;;;;;5049706;28;20294;-63
2024/03/22 00:56:25;;;;;;;17.37;11.97;;;8.10;99.90;;;;;;5049586;28;20316;-63
2024/03/22 00:58:50;;;;;;;14.80;12.83;;;8.10;99.90;;;;;;5049764;28;20276;-62
2024/03/22 01:01:16;;;;;;;17.03;10.87;;;8.10;99.90;;;;;;5049542;28;20187;-62
2024/03/22 01:03:41;;;;;;;18.20;12.20;;;8.20;99.90;;;;;;5050080;28;20219;-61
2024/03/22 01:06:07;;;;;;;18.80;10.77;;;8.20;99.90;;;;;;5049693;28;20305;-64
2024/03/22 01:08:33;;;;;;;17.17;11.90;;;8.20;99.90;;;;;;5049194;28;20183;-62
2024/03/22 01:10:58;;;;;;;16.03;11.23;;;8.20;99.90;;;;;;5049664;28;20210;-63
2024/03/22 01:13:24;;;;;;;16.87;11.60;;;8.20;99.90;;;;;;5048888;28;20274;-62
2024/03/22 01:15:49;;;;;;;19.43;13.00;;;8.20;99.90;;;;;;5048775;28;20206;-64
2024/03/22 01:18:15;;;;;;;14.70;12.03;;;8.20;99.90;;;;;;5049492;28;20395;-61
2024/03/22 01:20:42;;;;;;;16.40;12.50;;;8.20;99.90;;;;;;5049888;28;20203;-63
2024/03/22 01:23:07;;;;;;;17.13;12.23;;;8.20;99.90;;;;;;5049016;28;20271;-64
2024/03/22 01:25:33;;;;;;;18.03;12.20;;;8.20;99.90;;;;;;5048451;28;20524;-59
2024/03/22 01:27:58;;;;;;;18.60;11.73;;;8.20;99.90;;;;;;5049569;28;20181;-63
2024/03/22 01:30:28;;;;;;;19.13;13.37;;;8.20;99.90;;;;;;5048443;28;20243;-63
2024/03/22 01:32:54;;;;;;;18.53;13.77;;;8.20;99.90;;;;;;5049251;28;20192;-63
2024/03/22 01:35:20;;;;;;;19.50;12.53;;;8.20;99.90;;;;;;5049108;28;20455;-63
2024/03/22 01:37:45;;;;;;;20.07;12.27;;;8.20;99.90;;;;;;5048781;28;20516;-64
2024/03/22 01:40:12;;;;;;;19.50;12.20;;;8.20;99.90;;;;;;5047935;28;20544;-63
2024/03/22 01:42:38;;;;;;;16.53;11.83;;;8.20;99.90;;;;;;5048960;28;20185;-62
2024/03/22 01:45:04;;;;;;;23.30;13.03;;;8.20;99.90;;;;;;5048538;28;20790;-64
2024/03/22 01:47:29;;;;;;;17.90;12.10;;;8.20;99.90;;;;;;5048560;28;20180;-62
2024/03/22 01:49:56;;;;;;;16.20;11.93;;;8.20;99.90;;;;;;5049144;28;20428;-62
2024/03/22 01:52:22;;;;;;;17.43;12.00;;;8.20;99.90;;;;;;5029963;28;20180;-62
2024/03/22 01:54:49;;;;;;;16.80;11.60;;;8.20;99.90;;;;;;5048812;28;20502;-63
2024/03/22 01:57:14;;;;;;;16.27;12.90;;;8.20;99.90;;;;;;5048761;28;20465;-61
2024/03/22 01:59:41;;;;;;;19.73;12.23;;;8.20;99.90;;;;;;5049403;28;20574;-64
2024/03/22 02:02:06;;;;;;;15.80;10.73;;;8.20;99.90;;;;;;5048552;28;20313;-63
2024/03/22 02:04:32;;;;;;;16.30;11.00;;;8.20;99.90;;;;;;5048630;28;20414;-63
2024/03/22 02:06:57;;;;;;;20.93;12.43;;;8.10;99.90;;;;;;5048976;28;20210;-61
2024/03/22 02:09:23;;;;;;;14.77;11.10;;;8.20;99.90;;;;;;5048359;28;20213;-63
2024/03/22 02:11:49;;;;;;;15.77;10.43;;;8.10;99.90;;;;;;5049107;28;20265;-63
2024/03/22 02:14:15;;;;;;;19.40;11.30;;;8.10;99.90;;;;;;5048968;28;20255;-63
2024/03/22 02:16:41;;;;;;;16.53;11.13;;;8.10;99.90;;;;;;5047886;28;20428;-63
2024/03/22 02:19:07;;;;;;;16.37;11.67;;;8.10;99.90;;;;;;5048443;28;20639;-63
2024/03/22 02:21:34;;;;;;;19.27;12.60;;;8.10;99.90;;;;;;5047592;28;20227;-64
2024/03/22 02:24:00;;;;;;;17.93;11.70;;;8.10;99.90;;;;;;5048319;28;20763;-62
2024/03/22 02:26:25;;;;;;;15.80;12.07;;;8.10;99.90;;;;;;5047316;28;20484;-62
2024/03/22 02:28:51;;;;;;;18.93;12.17;;;8.20;99.90;;;;;;5048779;28;20601;-63
2024/03/22 02:31:16;;;;;;;16.87;11.70;;;8.20;99.90;;;;;;5048043;28;20186;-61
2024/03/22 02:33:42;;;;;;;20.67;14.50;;;8.10;99.90;;;;;;5048158;28;20178;-63
2024/03/22 02:36:08;;;;;;;18.43;10.83;;;8.10;99.90;;;;;;5048055;28;20298;-61
2024/03/22 02:38:34;;;;;;;17.40;11.37;;;8.10;99.90;;;;;;5048135;28;20285;-61
2024/03/22 02:40:59;;;;;;;20.00;12.40;;;8.10;99.90;;;;;;5049696;28;20436;-63
2024/03/22 02:43:25;;;;;;;16.03;10.97;;;8.20;99.90;;;;;;5051907;28;20181;-63
2024/03/22 02:45:51;;;;;;;18.10;12.53;;;8.10;99.90;;;;;;5051639;28;20299;-64
2024/03/22 02:48:16;;;;;;;19.83;12.27;;;8.10;99.90;;;;;;5047191;28;20187;-61
2024/03/22 02:50:42;;;;;;;17.80;10.93;;;8.10;99.90;;;;;;5048938;28;20295;-60
2024/03/22 02:53:07;;;;;;;15.97;10.23;;;8.20;99.90;;;;;;5052120;28;20256;-63
2024/03/22 02:55:40;;;;;;;15.23;11.90;;;8.10;99.90;;;;;;5049853;28;20202;-63
2024/03/22 02:58:07;;;;;;;15.60;10.10;;;8.10;99.90;;;;;;5034370;28;20236;-63
2024/03/22 03:00:37;;;;;;;16.47;11.83;;;8.10;99.90;;;;;;5051115;28;20505;-63
2024/03/22 03:03:02;;;;;;;20.30;10.70;;;8.10;99.90;;;;;;5052156;28;20423;-63
2024/03/22 03:05:28;;;;;;;18.33;11.90;;;8.10;99.90;;;;;;5050928;28;20441;-63
2024/03/22 03:07:53;;;;;;;15.63;10.97;;;8.10;99.90;;;;;;5051977;28;20208;-63
2024/03/22 03:10:20;;;;;;;20.97;12.13;;;8.10;99.90;;;;;;5051409;28;20211;-63
2024/03/22 03:12:46;;;;;;;17.03;10.50;;;8.10;99.90;;;;;;5051161;28;20925;-64
2024/03/22 03:15:11;;;;;;;19.10;12.60;;;8.00;99.90;;;;;;5050375;28;20283;-64
2024/03/22 03:17:37;;;;;;;21.27;12.27;;;8.10;99.90;;;;;;5051562;28;20698;-63
2024/03/22 03:20:07;;;;;;;18.00;11.07;;;8.10;99.90;;;;;;5056434;28;20198;-62
2024/03/22 03:22:33;;;;;;;17.83;11.47;;;8.00;99.90;;;;;;5052136;28;20630;-63
2024/03/22 03:24:59;;;;;;;14.63;10.03;;;8.10;99.90;;;;;;5048244;28;20601;-63
2024/03/22 03:27:24;;;;;;;21.00;12.50;;;8.10;99.90;;;;;;5052455;28;20876;-62
2024/03/22 03:29:50;;;;;;;18.10;10.83;;;8.10;99.90;;;;;;5052182;28;20181;-64
2024/03/22 03:32:15;;;;;;;18.13;10.17;;;8.10;99.90;;;;;;5047671;28;20204;-62
2024/03/22 03:34:41;;;;;;;17.17;12.03;;;8.10;99.90;;;;;;5050954;28;20293;-62
2024/03/22 03:37:06;;;;;;;21.90;10.73;;;8.10;99.90;;;;;;5051452;28;20728;-63
2024/03/22 03:39:32;;;;;;;13.97;8.93;;;8.10;99.90;;;;;;5049874;28;20582;-63
2024/03/22 03:41:57;;;;;;;17.63;11.63;;;8.10;99.90;;;;;;5049932;28;20182;-63
2024/03/22 03:44:23;;;;;;;16.43;10.57;;;8.20;99.90;;;;;;5050044;28;20181;-62
2024/03/22 03:46:49;;;;;;;24.67;11.53;;;8.20;99.90;;;;;;5052130;28;20210;-63
2024/03/22 03:49:14;;;;;;;13.63;9.67;;;8.20;99.90;;;;;;5045796;28;20260;-65
2024/03/22 03:51:40;;;;;;;15.40;9.10;;;8.20;99.90;;;;;;5050960;28;20657;-64
2024/03/22 03:54:05;;;;;;;15.63;11.30;;;8.10;99.90;;;;;;5050507;28;20175;-63
2024/03/22 03:56:31;;;;;;;19.97;13.23;;;8.20;99.90;;;;;;5049084;28;20300;-63
2024/03/22 03:58:57;;;;;;;15.47;10.30;;;8.20;99.90;;;;;;5049533;28;20195;-63
2024/03/22 04:01:23;;;;;;;15.17;9.23;;;8.20;99.90;;;;;;5038127;28;20437;-62
2024/03/22 04:03:49;;;;;;;13.60;10.70;;;8.10;99.90;;;;;;5050967;28;20202;-63
2024/03/22 04:06:14;;;;;;;15.00;10.13;;;8.20;99.90;;;;;;5051387;28;20833;-64
2024/03/22 04:08:40;;;;;;;17.60;12.03;;;8.20;99.90;;;;;;5052297;28;20491;-64
2024/03/22 04:11:05;;;;;;;18.23;10.17;;;8.20;99.90;;;;;;5039047;28;20184;-63
2024/03/22 04:13:31;;;;;;;16.47;10.67;;;8.20;99.90;;;;;;5053842;28;20646;-63
2024/03/22 04:15:59;;;;;;;18.23;10.53;;;8.20;99.90;;;;;;5049293;28;20212;-65
2024/03/22 04:18:25;;;;;;;16.77;10.37;;;8.20;99.90;;;;;;5050705;28;20637;-63
2024/03/22 04:20:55;;;;;;;14.90;9.60;;;8.20;99.90;;;;;;5051136;28;20440;-64
2024/03/22 04:23:21;;;;;;;14.90;9.40;;;8.20;99.90;;;;;;5050592;28;20628;-63
2024/03/22 04:25:56;;;;;;;13.83;10.27;;;8.20;99.90;;;;;;5050900;28;20503;-63
2024/03/22 04:28:22;;;;;;;13.23;10.27;;;8.20;99.90;;;;;;5050784;28;20451;-63
2024/03/22 04:30:59;;;;;;;17.77;9.90;;;8.20;99.90;;;;;;5049534;28;20429;-63
2024/03/22 04:33:24;;;;;;;17.93;11.07;;;8.20;99.90;;;;;;5050214;28;20944;-63
2024/03/22 04:35:50;;;;;;;18.43;11.20;;;8.30;99.90;;;;;;5050990;28;20446;-64
2024/03/22 04:38:16;;;;;;;18.03;11.00;;;8.30;99.90;;;;;;5051184;28;20195;-63
2024/03/22 04:40:42;;;;;;;15.90;10.90;;;8.30;99.90;;;;;;5051117;28;20290;-63
2024/03/22 04:43:08;;;;;;;16.33;9.17;;;8.30;99.90;;;;;;5051457;28;20181;-62
2024/03/22 04:45:34;;;;;;;15.60;10.07;;;8.30;99.90;;;;;;5051250;28;20196;-62
2024/03/22 04:48:04;;;;;;;14.53;9.20;;;8.30;99.90;;;;;;5049632;28;20451;-63
2024/03/22 04:50:31;;;;;;;13.43;8.93;;;8.30;99.90;;;;;;5051227;28;20621;-63
2024/03/22 04:52:57;;;;;;;16.73;10.13;;;8.40;99.90;;;;;;5050386;28;20435;-64
2024/03/22 04:55:22;;;;;;;15.03;9.63;;;8.40;99.90;;;;;;5049558;28;20929;-64
2024/03/22 04:57:48;;;;;;;12.63;9.23;;;8.40;99.90;;;;;;5050461;28;20209;-64
2024/03/22 05:00:15;;;;;;;14.30;8.53;;;8.40;99.90;;;;;;5049876;28;20181;-64
2024/03/22 05:02:40;;;;;;;15.70;11.03;;;8.40;99.90;;;;;;5048391;28;20418;-63
2024/03/22 05:05:07;;;;;;;14.77;9.20;;;8.40;99.90;;;;;;5050583;28;20436;-64
2024/03/22 05:07:33;;;;;;;12.30;8.37;;;8.40;99.90;;;;;;5050340;28;20248;-64
2024/03/22 05:09:58;;;;;;;12.43;8.77;;;8.40;99.90;;;;;;5048261;28;20448;-64
2024/03/22 05:12:24;;;;;;;12.20;8.67;;;8.40;99.90;;;;;;5050211;28;20193;-63
2024/03/22 05:14:50;;;;;;;13.37;8.50;;;8.40;99.90;;;;;;5050411;28;20210;-64
2024/03/22 05:17:15;;;;;;;15.37;10.47;;;8.40;99.90;;;;;;5049729;28;20205;-64
2024/03/22 05:19:41;;;;;;;15.30;9.23;;;8.40;99.90;;;;;;5049970;28;20181;-64
2024/03/22 05:22:06;;;;;;;18.57;10.57;;;8.40;99.90;;;;;;5049899;28;20180;-64
2024/03/22 05:24:32;;;;;;;14.90;8.70;;;8.50;99.90;;;;;;5049414;28;20186;-62
2024/03/22 05:26:59;;;;;;;17.37;10.67;;;8.50;99.90;;;;;;5046471;28;20186;-64
2024/03/22 05:29:25;;;;;;;14.43;10.17;;;8.50;99.90;;;;;;5049546;28;20555;-64
2024/03/22 05:31:53;;;;;;;16.03;9.80;;;8.50;99.90;;;;;;5049904;28;20420;-64
2024/03/22 05:34:19;;;;;;;14.97;10.30;;;8.50;99.90;;;;;;5050121;28;20529;-64
2024/03/22 05:36:46;;;;;;;13.20;9.17;;;8.60;99.90;;;;;;5049960;28;20424;-63
2024/03/22 05:39:12;;;;;;;16.80;9.50;;;8.60;99.90;;;;;;5050688;28;20190;-64
2024/03/22 05:41:37;;;;;;;14.10;8.93;;;8.60;99.90;;;;;;5048919;28;20710;-63
2024/03/22 05:44:03;;;;;;;15.33;9.80;;;8.60;99.90;;;;;;5051312;28;20435;-63
2024/03/22 05:46:30;;;;;;;15.47;9.23;;;8.70;99.90;;;;;;5048804;28;20773;-64
2024/03/22 05:48:56;;;;;;;14.53;10.60;;;8.70;99.90;;;;;;5049512;28;20425;-64
2024/03/22 05:51:22;;;;;;;13.70;9.63;;;8.80;99.90;;;;;;5049477;28;20412;-64
2024/03/22 05:53:48;;;;;;;15.90;11.10;;;8.80;99.90;;;;;;5048736;28;20419;-64
2024/03/22 05:56:14;;;;;;;16.30;10.07;;;8.80;99.90;;;;;;5049919;28;20703;-64
2024/03/22 05:58:40;;;;;;;13.83;9.17;;;8.80;99.90;;;;;;5047719;28;20603;-64
2024/03/22 06:01:06;;;;;;;17.37;11.10;;;8.90;99.90;;;;;;5049762;28;20543;-64
2024/03/22 06:03:31;;;;;;;18.43;11.03;;;8.90;99.90;;;;;;5048750;28;20417;-63
2024/03/22 06:06:00;;;;;;;16.17;11.20;;;9.00;99.90;;;;;;5049432;28;20202;-62
2024/03/22 06:08:28;;;;;;;14.93;9.73;;;9.00;99.90;;;;;;5049135;28;20175;-64
2024/03/22 06:10:58;;;;;;;18.37;9.80;;;9.10;99.90;;;;;;5048179;28;20429;-64
2024/03/22 06:13:23;;;;;;;14.70;9.37;;;9.20;99.90;;;;;;5053029;28;20439;-63
2024/03/22 06:15:49;;;;;;;17.83;9.87;;;9.30;99.90;;;;;;5046730;28;20817;-63
2024/03/22 06:18:15;;;;;;;13.90;10.20;;;9.40;99.90;;;;;;5053418;28;20288;-63
2024/03/22 06:20:41;;;;;;;20.70;11.20;;;9.40;99.90;;;;;;5051995;28;20436;-64
2024/03/22 06:23:08;;;;;;;13.80;9.27;;;9.40;99.90;;;;;;5053096;28;20974;-64
2024/03/22 06:25:33;;;;;;;16.57;10.43;;;9.50;99.90;;;;;;5051961;28;20202;-63
2024/03/22 06:27:59;;;;;;;10.53;9.03;;;9.60;99.90;;;;;;5053918;28;20448;-64
2024/03/22 06:30:24;;;;;;;14.77;10.20;;;9.40;99.90;;;;;;5054892;28;20182;-64
2024/03/22 06:32:50;;;;;;;15.57;10.60;;;9.50;99.90;;;;;;5053715;28;20249;-64
2024/03/22 06:35:16;;;;;;;15.17;11.27;;;9.50;99.90;;;;;;5053326;28;20317;-64
2024/03/22 06:37:41;;;;;;;15.97;9.60;;;9.50;99.90;;;;;;5052108;28;20242;-64
2024/03/22 06:40:11;;;;;;;12.43;9.00;;;9.70;99.90;;;;;;5051780;28;20175;-65
2024/03/22 06:42:36;;;;;;;18.73;11.70;;;9.60;99.90;;;;;;5052252;28;20261;-64
2024/03/22 06:45:02;;;;;;;19.73;10.50;;;9.70;99.90;;;;;;5053214;28;21042;-63
2024/03/22 06:47:28;;;;;;;17.03;11.77;;;9.70;99.90;;;;;;5053810;28;20187;-64
2024/03/22 06:49:54;;;;;;;15.43;9.70;;;9.60;99.90;;;;;;5053427;28;20793;-63
2024/03/22 06:52:20;;;;;;;18.50;9.57;;;9.60;99.90;;;;;;5052342;28;20187;-63
2024/03/22 06:54:46;;;;;;;16.30;10.87;;;9.60;99.90;;;;;;5051561;28;20237;-63
2024/03/22 06:57:11;;;;;;;20.23;12.90;;;9.60;99.90;;;;;;5049524;28;20461;-63
2024/03/22 06:59:37;;;;;;;19.33;10.97;;;9.70;99.90;;;;;;5052176;28;20457;-62
2024/03/22 07:02:02;;;;;;;19.33;11.67;;;9.70;99.90;;;;;;5052602;28;20187;-62
2024/03/22 07:04:28;;;;;;;19.43;11.37;;;9.80;99.90;;;;;;5051116;28;20208;-63
2024/03/22 07:06:54;;;;;;;15.77;10.03;;;9.90;99.90;;;;;;5049701;28;20268;-63
2024/03/22 07:09:19;;;;;;;15.53;11.77;;;9.80;99.90;;;;;;5052294;28;20190;-63
2024/03/22 07:11:45;;;;;;;19.10;11.90;;;9.80;99.90;;;;;;5050075;28;20187;-63
2024/03/22 07:14:10;;;;;;;16.43;11.30;;;9.80;99.90;;;;;;5050763;28;20205;-63
2024/03/22 07:16:37;;;;;;;16.47;11.73;;;9.80;99.90;;;;;;5051340;28;20661;-64
2024/03/22 07:19:03;;;;;;;18.23;11.83;;;9.70;99.90;;;;;;5051837;28;20558;-63
2024/03/22 07:21:29;;;;;;;17.90;12.97;;;9.80;99.90;;;;;;5051859;28;20925;-64
2024/03/22 07:23:55;;;;;;;18.90;12.23;;;9.90;99.90;;;;;;5047934;28;20448;-63
2024/03/22 07:26:20;;;;;;;16.70;14.60;;;9.90;99.90;;;;;;5051069;28;20536;-62
2024/03/22 07:28:46;;;;;;;16.17;11.40;;;9.80;99.90;;;;;;5051456;28;20201;-60
2024/03/22 07:31:12;;;;;;;18.90;12.70;;;9.90;99.90;;;;;;5052044;28;20422;-62
2024/03/22 07:33:39;;;;;;;18.27;11.57;;;9.90;99.90;;;;;;5044477;28;20183;-62
2024/03/22 07:36:05;;;;;;;20.70;12.57;;;9.90;99.90;;;;;;5049507;28;20321;-63
2024/03/22 07:38:30;;;;;;;24.23;14.03;;;9.80;99.90;;;;;;5051117;28;20503;-62
2024/03/22 07:40:56;;;;;;;18.97;12.93;;;9.90;99.90;;;;;;5047561;28;20409;-62
2024/03/22 07:43:22;;;;;;;20.50;14.80;;;9.90;99.90;;;;;;5051720;28;20800;-63
2024/03/22 07:45:47;;;;;;;20.23;12.10;;;9.90;99.90;;;;;;5050893;28;20218;-65
2024/03/22 07:48:13;;;;;;;22.13;12.83;;;10.10;99.90;;;;;;5051578;28;20183;-63
2024/03/22 07:50:39;;;;;;;20.00;13.20;;;10.20;99.90;;;;;;5049951;28;20612;-64
2024/03/22 07:53:04;;;;;;;19.93;12.80;;;10.10;99.90;;;;;;5051413;28;20284;-62
2024/03/22 07:55:30;;;;;;;18.53;12.60;;;10.20;99.90;;;;;;5047050;28;20649;-63
2024/03/22 07:57:57;;;;;;;23.33;12.73;;;10.20;99.90;;;;;;5050961;28;20194;-63
2024/03/22 08:00:24;;;;;;;26.90;13.60;;;10.20;99.90;;;;;;5049755;28;20182;-63
2024/03/22 08:02:51;;;;;;;23.83;13.53;;;10.30;99.90;;;;;;5049956;28;20445;-63
2024/03/22 08:05:16;;;;;;;20.80;14.13;;;10.40;99.90;;;;;;5051208;28;20440;-62
2024/03/22 08:07:43;;;;;;;19.03;12.37;;;10.40;99.90;;;;;;5050285;28;20841;-63
2024/03/22 08:10:09;;;;;;;21.00;13.40;;;10.40;99.90;;;;;;5050428;28;20602;-59
2024/03/22 08:12:35;;;;;;;16.13;12.70;;;10.50;99.90;;;;;;5049824;28;20451;-65
2024/03/22 08:15:01;;;;;;;18.03;12.00;;;10.50;99.90;;;;;;5051562;28;20441;-63
2024/03/22 08:17:26;;;;;;;18.00;11.90;;;10.50;99.90;;;;;;5051595;28;20210;-64
2024/03/22 08:19:52;;;;;;;21.43;14.10;;;10.50;99.90;;;;;;5051457;28;20185;-64
2024/03/22 08:22:18;;;;;;;17.70;12.93;;;10.50;99.90;;;;;;5032795;28;20171;-64
2024/03/22 08:24:44;;;;;;;16.83;11.97;;;10.50;99.90;;;;;;5051820;28;20460;-64
2024/03/22 08:27:09;;;;;;;20.50;13.80;;;10.60;99.90;;;;;;5051221;28;20175;-64
2024/03/22 08:29:35;;;;;;;22.83;13.90;;;10.60;99.90;;;;;;5051906;28;20183;-64
2024/03/22 08:32:04;;;;;;;20.27;12.63;;;10.60;99.90;;;;;;5050667;28;20210;-64
2024/03/22 08:34:30;;;;;;;20.57;14.23;;;10.50;99.90;;;;;;5051634;28;20194;-63
2024/03/22 08:36:55;;;;;;;19.30;13.13;;;10.60;99.90;;;;;;5052377;28;20935;-63
2024/03/22 08:39:21;;;;;;;20.00;13.70;;;10.70;99.90;;;;;;5051203;28;20410;-63
2024/03/22 08:41:47;;;;;;;23.70;14.80;;;10.70;99.90;;;;;;5052000;28;20619;-63
2024/03/22 08:44:13;;;;;;;18.60;13.20;;;10.70;99.90;;;;;;5050672;28;20628;-64
2024/03/22 08:46:38;;;;;;;20.57;13.67;;;10.80;99.90;;;;;;5049180;28;20457;-64
2024/03/22 08:49:04;;;;;;;20.70;14.33;;;10.80;99.90;;;;;;5050685;28;20210;-63
2024/03/22 08:51:30;;;;;;;18.77;13.43;;;11.00;99.90;;;;;;5050841;28;20266;-63
2024/03/22 08:53:56;;;;;;;22.70;13.77;;;11.10;99.90;;;;;;5049818;28;20450;-65
2024/03/22 08:56:21;;;;;;;22.57;14.50;;;11.00;99.90;;;;;;5050918;28;20638;-63
2024/03/22 08:58:47;;;;;;;23.90;13.43;;;11.10;99.90;;;;;;5050678;28;20264;-63
2024/03/22 09:01:12;;;;;;;20.03;14.50;;;11.10;99.90;;;;;;5049457;28;20285;-64
2024/03/22 09:03:39;;;;;;;19.20;13.13;;;11.20;99.90;;;;;;5050895;28;20179;-64
2024/03/22 09:06:04;;;;;;;20.27;13.07;;;11.30;99.90;;;;;;5051491;28;20202;-62
2024/03/22 09:08:31;;;;;;;20.87;14.50;;;11.50;99.90;;;;;;5051063;28;20470;-63
2024/03/22 09:10:57;;;;;;;22.80;14.33;;;11.50;99.90;;;;;;5032154;28;20587;-63
2024/03/22 09:13:22;;;;;;;20.53;13.70;;;11.60;99.90;;;;;;5048154;28;20429;-64
2024/03/22 09:15:48;;;;;;;20.80;12.60;;;11.70;99.90;;;;;;5049875;28;20452;-64
2024/03/22 09:18:13;;;;;;;20.63;13.90;;;11.80;99.90;;;;;;5049041;28;20665;-65
2024/03/22 09:20:39;;;;;;;17.77;12.87;;;11.90;99.90;;;;;;5050260;28;20244;-64
2024/03/22 09:23:05;;;;;;;20.43;14.13;;;11.90;99.90;;;;;;5049753;28;20516;-63
2024/03/22 09:25:30;;;;;;;20.90;12.90;;;11.80;99.90;;;;;;5050146;28;20198;-65
2024/03/22 09:27:56;;;;;;;19.23;13.00;;;11.80;99.90;;;;;;5050828;28;20678;-64
2024/03/22 09:30:22;;;;;;;19.03;13.10;;;11.90;99.90;;;;;;5048966;28;20267;-64
2024/03/22 09:32:47;;;;;;;19.63;12.63;;;12.00;99.90;;;;;;5049306;28;20190;-63
2024/03/22 09:35:17;;;;;;;16.23;12.13;;;12.00;99.90;;;;;;5049842;28;20281;-64
2024/03/22 09:37:43;;;;;;;16.60;12.60;;;12.10;99.90;;;;;;5049995;28;20362;-62
2024/03/22 09:40:09;;;;;;;17.10;12.47;;;12.40;99.90;;;;;;5048332;28;20448;-63
2024/03/22 09:42:41;;;;;;;17.50;13.17;;;12.30;99.90;;;;;;5046342;28;20472;-64
2024/03/22 09:45:10;;;;;;;21.47;13.97;;;12.40;99.90;;;;;;5047533;28;20449;-62
2024/03/22 09:47:37;;;;;;;20.57;12.97;;;12.30;99.90;;;;;;5049019;28;20417;-64
2024/03/22 09:50:06;;;;;;;15.40;12.00;;;12.20;99.90;;;;;;5048465;28;20427;-63
2024/03/22 09:52:33;;;;;;;21.90;12.13;;;12.10;99.90;;;;;;5049026;28;20961;-63
2024/03/22 09:54:59;;;;;;;18.07;14.00;;;12.20;99.90;;;;;;5048218;28;20440;-62
2024/03/22 09:57:25;;;;;;;17.77;12.90;;;12.40;99.90;;;;;;5048991;28;21011;-63
2024/03/22 09:59:51;;;;;;;21.13;14.23;;;12.60;99.90;;;;;;5047651;28;20183;-62
2024/03/22 10:02:18;;;;;;;19.90;13.70;;;12.80;99.90;;;;;;5049107;28;20442;-62
2024/03/22 10:04:43;;;;;;;20.40;12.10;;;12.70;99.90;;;;;;5048743;28;20203;-62
2024/03/22 10:07:10;;;;;;;17.43;14.00;;;12.90;99.90;;;;;;5049278;28;20423;-63
2024/03/22 10:09:36;;;;;;;19.50;11.80;;;12.90;99.90;;;;;;5048204;28;20180;-64
2024/03/22 10:12:03;;;;;;;16.20;12.50;;;13.00;99.90;;;;;;5048891;28;20440;-62
2024/03/22 10:14:29;;;;;;;16.83;12.83;;;13.00;99.90;;;;;;5047251;28;20454;-63
2024/03/22 10:16:55;;;;;;;24.80;14.77;;;13.20;99.90;;;;;;5048622;28;20510;-63
2024/03/22 10:19:21;;;;;;;19.03;11.30;;;13.20;99.90;;;;;;5030003;28;20505;-62
2024/03/22 10:21:58;;;;;;;16.63;12.97;;;13.20;99.90;;;;;;5048742;28;20529;-62
2024/03/22 10:24:24;;;;;;;17.30;12.10;;;13.30;99.90;;;;;;5048223;28;20835;-63
2024/03/22 10:26:50;;;;;;;14.90;11.80;;;13.30;99.90;;;;;;5047045;28;20510;-62
2024/03/22 10:29:16;;;;;;;18.13;12.93;;;13.20;99.90;;;;;;5047560;28;20187;-64
2024/03/22 10:31:42;;;;;;;16.60;11.50;;;13.20;99.90;;;;;;5047557;28;20439;-64
2024/03/22 10:34:11;;;;;;;19.07;11.83;;;13.10;99.90;;;;;;5049467;28;20587;-64
2024/03/22 10:36:36;;;;;;;17.97;12.80;;;13.30;99.90;;;;;;5048131;28;20807;-63
2024/03/22 10:39:03;;;;;;;17.00;12.87;;;13.50;99.90;;;;;;5046823;28;20453;-65
2024/03/22 10:41:29;;;;;;;15.17;11.60;;;13.60;99.90;;;;;;5048624;28;20718;-64
2024/03/22 10:43:56;;;;;;;18.17;12.10;;;13.50;99.90;;;;;;5041529;28;20564;-64
2024/03/22 10:46:24;;;;;;;15.63;12.20;;;13.50;99.90;;;;;;5046842;28;20286;-64
2024/03/22 10:48:50;;;;;;;15.70;10.73;;;13.80;99.90;;;;;;5048550;28;20418;-64
2024/03/22 10:51:16;;;;;;;15.17;10.90;;;13.90;99.90;;;;;;5047095;28;20976;-64
2024/03/22 10:53:43;;;;;;;15.50;10.87;;;14.20;99.90;;;;;;5048375;28;20283;-64
2024/03/22 10:56:10;;;;;;;12.93;10.33;;;14.20;99.90;;;;;;5048080;28;21091;-64
2024/03/22 10:58:39;;;;;;;13.57;10.20;;;14.10;99.90;;;;;;5050827;28;20460;-65
2024/03/22 11:01:05;;;;;;;14.77;10.13;;;14.70;99.90;;;;;;5052051;28;20424;-64
2024/03/22 11:03:33;;;;;;;17.77;11.70;;;14.90;99.90;;;;;;5053268;28;20469;-63
2024/03/22 11:05:58;;;;;;;12.77;10.23;;;14.90;99.90;;;;;;5053000;28;20243;-63
2024/03/22 11:08:28;;;;;;;14.27;10.43;;;14.90;99.90;;;;;;5052460;28;20423;-65
2024/03/22 11:10:56;;;;;;;12.50;10.17;;;14.60;99.90;;;;;;5050381;28;20193;-64
2024/03/22 11:13:22;;;;;;;15.93;10.40;;;14.60;99.90;;;;;;5049143;28;20780;-65
2024/03/22 11:15:49;;;;;;;14.43;10.60;;;14.70;99.90;;;;;;5050286;28;20470;-64
2024/03/22 11:18:15;;;;;;;15.60;10.77;;;14.80;99.90;;;;;;5045486;28;20470;-64
2024/03/22 11:20:42;;;;;;;14.90;10.63;;;14.50;99.90;;;;;;5048684;28;20489;-65
2024/03/22 11:23:09;;;;;;;14.20;10.83;;;14.50;99.90;;;;;;5046013;28;20420;-63
2024/03/22 11:25:34;;;;;;;17.60;11.53;;;14.30;99.90;;;;;;5047672;28;20577;-64
2024/03/22 11:28:01;;;;;;;15.00;10.43;;;13.80;99.90;;;;;;5051443;28;20427;-63
2024/03/22 11:30:29;;;;;;;17.37;11.23;;;13.50;99.90;;;;;;5052223;28;20260;-64
2024/03/22 11:32:54;;;;;;;16.03;10.33;;;13.60;99.90;;;;;;5052181;28;20503;-64
2024/03/22 11:35:20;;;;;;;13.90;10.83;;;13.50;99.90;;;;;;5052124;28;20997;-64
2024/03/22 11:37:45;;;;;;;14.73;10.90;;;13.30;99.90;;;;;;5051067;28;20203;-63
2024/03/22 11:40:12;;;;;;;14.07;10.17;;;13.30;99.90;;;;;;5052479;28;20319;-64
2024/03/22 11:42:47;;;;;;;16.30;11.63;;;13.30;99.90;;;;;;5051023;28;20175;-63
2024/03/22 11:45:16;;;;;;;18.27;11.23;;;13.20;99.90;;;;;;5045035;28;20440;-64
2024/03/22 11:47:42;;;;;;;13.50;9.77;;;13.30;99.90;;;;;;5052840;28;20508;-62
2024/03/22 11:50:08;;;;;;;16.20;10.47;;;13.10;99.90;;;;;;5053655;28;20496;-64
2024/03/22 11:52:35;;;;;;;16.80;10.10;;;12.90;99.90;;;;;;5050423;28;20183;-65
2024/03/22 11:55:01;;;;;;;20.57;12.20;;;13.00;99.90;;;;;;5051833;28;20804;-65
2024/03/22 11:57:27;;;;;;;16.90;11.13;;;13.20;99.90;;;;;;5050928;28;20599;-65
2024/03/22 11:59:59;;;;;;;14.53;11.10;;;13.20;99.90;;;;;;5051558;28;20726;-64
2024/03/22 12:02:25;;;;;;;13.70;9.93;;;13.00;99.90;;;;;;5051084;28;20406;-64
2024/03/22 12:04:51;;;;;;;17.53;12.00;;;12.90;99.90;;;;;;5051662;28;20974;-64
2024/03/22 12:07:17;;;;;;;12.97;10.47;;;12.80;99.90;;;;;;5052006;28;20190;-64
2024/03/22 12:09:44;;;;;;;21.23;12.37;;;12.60;99.90;;;;;;5050426;28;20191;-64
2024/03/22 12:12:11;;;;;;;15.13;10.87;;;12.80;99.90;;;;;;5049339;28;20793;-64
2024/03/22 12:14:37;;;;;;;17.63;12.13;;;12.90;99.90;;;;;;5051251;28;20420;-64
2024/03/22 12:17:02;;;;;;;19.60;12.60;;;12.70;99.90;;;;;;5050649;28;20452;-63
2024/03/22 12:19:29;;;;;;;18.50;12.20;;;12.60;99.90;;;;;;5051781;28;20183;-63
2024/03/22 12:21:55;;;;;;;18.37;12.10;;;12.50;99.90;;;;;;5051959;28;20433;-63
2024/03/22 12:24:21;;;;;;;19.57;13.50;;;12.40;99.90;;;;;;5049761;28;20429;-63
2024/03/22 12:26:47;;;;;;;23.17;14.03;;;12.40;99.90;;;;;;5051200;28;20462;-63